createdAt,value
2022-10-15T00:02:04.651Z,1.30
2022-10-15T00:04:32.626Z,1.52
2022-10-15T00:07:00.647Z,1.10
2022-10-15T00:09:30.091Z,0.90
2022-10-15T00:24:15.861Z,1.13
2022-10-15T00:35:40.620Z,0.80
2022-10-15T00:46:28.679Z,1.30
2022-10-15T00:54:14.183Z,0.80
2022-10-15T00:56:45.836Z,0.70
2022-10-15T00:59:16.518Z,0.82
2022-10-15T01:02:22.958Z,0.70
2022-10-15T01:04:57.273Z,0.70
2022-10-15T01:07:26.517Z,0.70
2022-10-15T01:09:55.342Z,0.80
2022-10-15T01:15:43.254Z,0.60
2022-10-15T01:18:16.440Z,0.90
2022-10-15T01:21:10.406Z,0.70
2022-10-15T01:24:02.900Z,0.90
2022-10-15T01:27:00.212Z,0.77
2022-10-15T01:29:58.656Z,0.73
2022-10-15T01:32:30.033Z,0.70
2022-10-15T01:35:08.070Z,0.70
2022-10-15T01:37:41.804Z,0.50
2022-10-15T01:40:18.244Z,0.50
2022-10-15T01:42:52.326Z,0.60
2022-10-15T01:45:26.994Z,0.70
2022-10-15T01:48:20.986Z,0.60
2022-10-15T01:50:55.814Z,0.55
2022-10-15T01:53:27.832Z,0.68
2022-10-15T01:56:01.002Z,0.50
2022-10-15T01:58:33.670Z,0.70
2022-10-15T02:01:04.848Z,0.50
2022-10-15T02:03:47.909Z,0.50
2022-10-15T02:06:22.648Z,0.50
2022-10-15T02:09:07.488Z,0.50
2022-10-15T02:11:50.095Z,0.50
2022-10-15T02:14:29.291Z,0.45
2022-10-15T02:17:08.552Z,0.45
2022-10-15T02:19:46.819Z,0.50
2022-10-15T02:22:20.593Z,0.60
2022-10-15T02:25:08.221Z,0.50
2022-10-15T02:27:39.533Z,0.47
2022-10-15T02:30:10.704Z,0.43
2022-10-15T02:32:44.291Z,0.40
2022-10-15T02:35:14.710Z,0.50
2022-10-15T02:37:50.193Z,0.45
2022-10-15T02:40:25.813Z,0.40
2022-10-15T02:42:56.785Z,0.50
2022-10-15T02:45:26.304Z,0.50
2022-10-15T02:47:55.946Z,0.30
2022-10-15T02:50:28.475Z,0.30
2022-10-15T02:52:58.251Z,0.50
2022-10-15T02:55:26.866Z,0.50
2022-10-15T02:57:55.364Z,0.40
2022-10-15T03:00:23.909Z,0.40
2022-10-15T03:02:53.426Z,0.40
2022-10-15T03:05:24.138Z,0.60
2022-10-15T03:07:54.663Z,0.50
2022-10-15T03:10:24.215Z,0.40
2022-10-15T03:12:52.717Z,0.38
2022-10-15T03:15:22.004Z,0.40
2022-10-15T03:17:50.690Z,0.40
2022-10-15T03:20:19.415Z,0.30
2022-10-15T03:22:48.396Z,0.40
2022-10-15T03:25:19.956Z,0.40
2022-10-15T03:27:54.355Z,0.45
2022-10-15T03:30:29.607Z,0.30
2022-10-15T03:32:59.170Z,0.40
2022-10-15T03:35:27.785Z,0.40
2022-10-15T03:37:57.950Z,0.40
2022-10-15T03:40:30.857Z,0.40
2022-10-15T03:43:10.545Z,0.40
2022-10-15T03:45:43.866Z,0.30
2022-10-15T03:48:20.278Z,0.30
2022-10-15T03:50:49.983Z,0.50
2022-10-15T03:53:19.000Z,0.32
2022-10-15T03:55:50.906Z,0.47
2022-10-15T03:58:20.403Z,0.40
2022-10-15T04:00:57.373Z,0.60
2022-10-15T04:03:54.205Z,0.30
2022-10-15T04:06:26.999Z,0.40
2022-10-15T04:08:55.316Z,0.38
2022-10-15T04:11:28.303Z,0.30
2022-10-15T04:14:08.162Z,0.40
2022-10-15T04:16:42.088Z,0.40
2022-10-15T04:19:16.490Z,0.50
2022-10-15T04:21:48.714Z,0.40
2022-10-15T04:24:30.285Z,0.38
2022-10-15T04:27:00.843Z,0.40
2022-10-15T04:29:29.211Z,0.50
2022-10-15T04:32:14.472Z,0.38
2022-10-15T04:34:45.709Z,0.40
2022-10-15T04:37:16.288Z,0.30
2022-10-15T04:39:46.257Z,0.30
2022-10-15T04:42:17.595Z,0.50
2022-10-15T04:44:46.166Z,0.30
2022-10-15T04:47:15.954Z,0.40
2022-10-15T04:49:47.523Z,0.40
2022-10-15T04:52:36.243Z,0.40
2022-10-15T04:55:09.294Z,0.40
2022-10-15T04:57:41.081Z,0.45
2022-10-15T05:00:10.647Z,0.40
2022-10-15T05:02:57.766Z,0.47
2022-10-15T05:05:37.064Z,0.60
2022-10-15T05:08:06.852Z,0.40
2022-10-15T05:10:51.451Z,0.40
2022-10-15T05:13:21.810Z,0.40
2022-10-15T05:15:50.988Z,0.45
2022-10-15T05:18:20.005Z,0.40
2022-10-15T05:20:53.317Z,0.40
2022-10-15T05:23:22.137Z,0.40
2022-10-15T05:26:01.626Z,0.40
2022-10-15T05:28:32.163Z,0.50
2022-10-15T05:31:05.687Z,0.40
2022-10-15T05:33:34.709Z,0.50
2022-10-15T05:36:11.371Z,0.40
2022-10-15T05:38:40.115Z,0.40
2022-10-15T05:41:08.854Z,0.50
2022-10-15T05:43:41.212Z,0.50
2022-10-15T05:46:16.467Z,0.52
2022-10-15T05:48:46.193Z,0.40
2022-10-15T05:51:14.953Z,0.50
2022-10-15T05:53:43.898Z,0.60
2022-10-15T05:56:13.119Z,0.73
2022-10-15T05:58:42.907Z,0.52
2022-10-15T06:01:13.311Z,0.50
2022-10-15T06:03:45.058Z,0.50
2022-10-15T06:06:19.056Z,0.40
2022-10-15T06:08:48.600Z,0.50
2022-10-15T06:11:18.723Z,0.60
2022-10-15T06:13:50.296Z,0.60
2022-10-15T06:16:23.903Z,0.50
2022-10-15T06:18:54.327Z,0.55
2022-10-15T06:21:23.735Z,0.55
2022-10-15T06:23:53.537Z,0.50
2022-10-15T06:26:22.299Z,0.50
2022-10-15T06:28:52.047Z,0.70
2022-10-15T06:31:21.321Z,0.50
2022-10-15T06:33:49.733Z,0.50
2022-10-15T06:36:17.993Z,0.60
2022-10-15T06:38:48.370Z,0.63
2022-10-15T06:41:16.666Z,0.68
2022-10-15T06:43:45.984Z,0.60
2022-10-15T06:46:16.349Z,0.60
2022-10-15T06:48:44.429Z,0.82
2022-10-15T06:51:13.821Z,1.10
2022-10-15T06:53:48.505Z,0.80
2022-10-15T06:56:16.535Z,0.73
2022-10-15T06:58:46.204Z,0.73
2022-10-15T07:01:19.252Z,0.98
2022-10-15T07:03:50.697Z,0.70
2022-10-15T07:06:19.699Z,0.90
2022-10-15T07:08:50.604Z,0.82
2022-10-15T07:11:19.330Z,0.70
2022-10-15T07:13:47.375Z,0.80
2022-10-15T07:16:16.978Z,1.00
2022-10-15T07:18:45.035Z,0.80
2022-10-15T07:21:13.233Z,0.98
2022-10-15T07:23:41.381Z,0.90
2022-10-15T07:26:09.628Z,0.80
2022-10-15T07:28:37.895Z,1.02
2022-10-15T07:31:08.514Z,0.70
2022-10-15T07:33:38.423Z,0.90
2022-10-15T07:36:08.355Z,1.08
2022-10-15T07:38:37.330Z,0.75
2022-10-15T07:41:06.329Z,0.82
2022-10-15T07:43:43.706Z,0.80
2022-10-15T07:46:12.272Z,0.77
2022-10-15T07:48:41.759Z,1.27
2022-10-15T07:51:12.713Z,0.70
2022-10-15T07:53:40.977Z,0.90
2022-10-15T07:56:13.114Z,1.00
2022-10-15T07:58:41.779Z,1.00
2022-10-15T08:01:11.712Z,0.88
2022-10-15T08:03:41.138Z,1.30
2022-10-15T08:06:09.517Z,0.82
2022-10-15T08:08:39.287Z,0.93
2022-10-15T08:11:08.412Z,1.05
2022-10-15T08:13:36.620Z,0.93
2022-10-15T08:16:05.612Z,1.17
2022-10-15T08:18:33.994Z,1.13
2022-10-15T08:21:03.462Z,0.75
2022-10-15T08:23:31.777Z,0.85
2022-10-15T08:26:01.441Z,1.05
2022-10-15T08:28:30.164Z,0.95
2022-10-15T08:31:02.764Z,0.80
2022-10-15T08:33:34.905Z,1.00
2022-10-15T08:36:06.338Z,1.20
2022-10-15T08:38:35.496Z,1.00
2022-10-15T08:41:06.821Z,1.20
2022-10-15T08:43:38.383Z,0.93
2022-10-15T08:46:19.969Z,1.35
2022-10-15T08:48:51.162Z,1.00
2022-10-15T08:51:23.756Z,0.90
2022-10-15T08:53:55.286Z,0.80
2022-10-15T08:56:28.335Z,0.90
2022-10-15T08:59:03.019Z,0.98
2022-10-15T09:01:36.833Z,1.00
2022-10-15T09:04:15.927Z,1.10
2022-10-15T09:06:46.466Z,1.20
2022-10-15T09:09:24.556Z,1.10
2022-10-15T09:12:00.876Z,0.95
2022-10-15T09:14:34.471Z,1.15
2022-10-15T09:17:07.498Z,0.90
2022-10-15T09:19:38.937Z,1.00
2022-10-15T09:22:16.001Z,1.10
2022-10-15T09:24:47.823Z,0.80
2022-10-15T09:27:26.415Z,0.82
2022-10-15T09:30:03.907Z,0.80
2022-10-15T09:32:38.410Z,0.75
2022-10-15T09:35:16.198Z,0.60
2022-10-15T09:37:54.001Z,0.50
2022-10-15T09:40:33.080Z,0.60
2022-10-15T09:43:03.075Z,0.75
2022-10-15T09:45:31.960Z,0.50
2022-10-15T09:48:04.126Z,0.65
2022-10-15T09:50:56.892Z,0.60
2022-10-15T09:53:42.348Z,0.50
2022-10-15T09:56:14.839Z,1.00
2022-10-15T09:58:52.710Z,0.85
2022-10-15T10:01:23.276Z,0.85
2022-10-15T10:03:55.062Z,1.20
2022-10-15T10:06:25.094Z,0.93
2022-10-15T10:08:59.371Z,1.52
2022-10-15T10:11:46.512Z,0.70
2022-10-15T10:14:24.436Z,1.50
2022-10-15T10:17:15.496Z,0.57
2022-10-15T10:19:44.166Z,2.10
2022-10-15T10:22:16.691Z,0.60
2022-10-15T10:24:47.279Z,0.60
2022-10-15T10:27:24.780Z,0.50
2022-10-15T10:29:57.035Z,0.50
2022-10-15T10:32:33.138Z,0.50
2022-10-15T10:35:04.071Z,0.50
2022-10-15T10:37:42.705Z,0.60
2022-10-15T10:40:25.111Z,0.55
2022-10-15T10:43:11.723Z,0.45
2022-10-15T10:45:39.846Z,0.50
2022-10-15T10:48:22.868Z,0.80
2022-10-15T10:51:04.232Z,0.63
2022-10-15T10:53:36.228Z,0.68
2022-10-15T10:56:08.397Z,1.60
2022-10-15T10:58:37.616Z,0.90
2022-10-15T11:01:05.814Z,3.00
2022-10-15T11:03:36.842Z,0.57
2022-10-15T11:06:30.123Z,0.60
2022-10-15T11:09:08.572Z,0.50
2022-10-15T11:11:48.257Z,0.60
2022-10-15T11:14:30.677Z,0.70
2022-10-15T11:17:09.254Z,0.70
2022-10-15T11:22:47.782Z,0.73
2022-10-15T11:25:28.925Z,0.73
2022-10-15T11:28:20.620Z,0.60
2022-10-15T11:30:56.325Z,0.90
2022-10-15T11:33:42.535Z,0.80
2022-10-15T11:36:30.208Z,0.93
2022-10-15T11:39:12.129Z,0.90
2022-10-15T11:41:49.015Z,1.38
2022-10-15T11:44:55.022Z,0.80
2022-10-15T11:47:34.509Z,1.00
2022-10-15T11:50:27.630Z,1.10
2022-10-15T11:53:20.058Z,0.90
2022-10-15T11:55:53.672Z,0.93
2022-10-15T11:58:30.576Z,1.20
2022-10-15T12:01:06.864Z,1.30
2022-10-15T12:03:40.358Z,1.25
2022-10-15T12:06:12.170Z,0.85
2022-10-15T12:08:44.543Z,0.85
2022-10-15T12:12:04.302Z,1.42
2022-10-15T12:14:43.575Z,0.68
2022-10-15T12:17:23.190Z,1.23
2022-10-15T12:19:59.734Z,1.30
2022-10-15T12:22:40.119Z,0.80
2022-10-15T12:25:42.676Z,0.98
2022-10-15T12:28:17.479Z,1.10
2022-10-15T12:30:56.741Z,0.70
2022-10-15T12:33:32.722Z,1.15
2022-10-15T12:36:03.021Z,1.00
2022-10-15T12:38:34.361Z,1.20
2022-10-15T12:41:09.924Z,1.02
2022-10-15T12:43:42.481Z,1.13
2022-10-15T12:46:12.675Z,1.13
2022-10-15T12:48:43.965Z,1.15
2022-10-15T12:51:40.313Z,0.90
2022-10-15T12:54:35.298Z,0.90
2022-10-15T12:57:06.364Z,0.77
2022-10-15T12:59:56.359Z,0.80
2022-10-15T13:05:26.283Z,1.00
2022-10-15T13:07:56.066Z,1.23
2022-10-15T13:10:54.481Z,0.80
2022-10-15T13:13:27.378Z,0.80
2022-10-15T13:16:00.023Z,1.63
2022-10-15T13:18:31.269Z,1.65
2022-10-15T13:23:32.599Z,1.05
2022-10-15T13:26:19.515Z,0.90
2022-10-15T13:28:49.046Z,1.35
2022-10-15T13:31:27.390Z,1.35
2022-10-15T13:34:02.253Z,1.40
2022-10-15T13:36:34.554Z,0.90
2022-10-15T13:39:06.576Z,1.20
2022-10-15T13:41:55.359Z,1.00
2022-10-15T13:44:24.943Z,0.80
2022-10-15T13:46:52.872Z,1.20
2022-10-15T13:49:22.326Z,0.75
2022-10-15T13:51:54.743Z,0.95
2022-10-15T13:54:25.321Z,1.40
2022-10-15T13:56:57.962Z,1.00
2022-10-15T13:59:27.505Z,1.10
2022-10-15T14:02:00.898Z,1.08
2022-10-15T14:04:30.490Z,1.30
2022-10-15T14:07:03.304Z,0.98
2022-10-15T14:09:34.278Z,1.15
2022-10-15T14:12:05.831Z,0.80
2022-10-15T14:14:35.810Z,0.90
2022-10-15T14:17:06.421Z,0.80
2022-10-15T14:19:36.788Z,0.90
2022-10-15T14:22:07.447Z,1.50
2022-10-15T14:24:37.181Z,1.10
2022-10-15T14:27:08.020Z,1.00
2022-10-15T14:29:42.717Z,1.10
2022-10-15T14:32:26.688Z,1.13
2022-10-15T14:34:56.452Z,1.58
2022-10-15T14:37:40.284Z,1.40
2022-10-15T14:40:21.834Z,1.27
2022-10-15T14:43:02.803Z,1.48
2022-10-15T14:45:35.933Z,1.48
2022-10-15T14:48:10.807Z,1.15
2022-10-15T14:50:43.838Z,1.33
2022-10-15T14:53:22.784Z,1.30
2022-10-15T14:55:53.773Z,1.30
2022-10-15T14:58:24.816Z,1.67
2022-10-15T15:00:58.484Z,1.60
2022-10-15T15:03:30.841Z,1.30
2022-10-15T15:05:59.776Z,1.10
2022-10-15T15:08:29.452Z,1.20
2022-10-15T15:10:59.095Z,1.23
2022-10-15T15:13:29.121Z,0.95
2022-10-15T15:15:57.719Z,0.90
2022-10-15T15:18:25.821Z,1.13
2022-10-15T15:20:54.687Z,1.15
2022-10-15T15:23:25.415Z,1.30
2022-10-15T15:25:56.027Z,0.85
2022-10-15T15:28:26.475Z,1.20
2022-10-15T15:30:58.673Z,0.93
2022-10-15T15:33:28.901Z,1.10
2022-10-15T15:36:02.315Z,1.10
2022-10-15T15:38:31.697Z,1.10
2022-10-15T15:41:12.735Z,1.23
2022-10-15T15:43:41.351Z,1.10
2022-10-15T15:46:09.603Z,1.40
2022-10-15T15:48:38.007Z,1.15
2022-10-15T15:51:08.974Z,1.00
2022-10-15T15:53:37.120Z,1.30
2022-10-15T15:56:07.868Z,1.05
2022-10-15T15:58:36.031Z,0.93
2022-10-15T16:01:04.139Z,0.90
2022-10-15T16:03:32.158Z,1.15
2022-10-15T16:06:00.196Z,0.95
2022-10-15T16:08:28.370Z,1.20
2022-10-15T16:10:56.412Z,1.10
2022-10-15T16:13:25.898Z,1.25
2022-10-15T16:15:53.899Z,0.80
2022-10-15T16:18:22.035Z,1.13
2022-10-15T16:20:50.455Z,0.98
2022-10-15T16:23:18.779Z,1.00
2022-10-15T16:25:46.849Z,0.90
2022-10-15T16:28:15.024Z,1.20
2022-10-15T16:30:44.718Z,1.05
2022-10-15T16:33:12.820Z,1.15
2022-10-15T16:35:40.940Z,0.80
2022-10-15T16:38:10.141Z,0.80
2022-10-15T16:40:39.579Z,0.70
2022-10-15T16:43:07.751Z,0.70
2022-10-15T16:45:36.110Z,0.90
2022-10-15T16:48:06.472Z,0.77
2022-10-15T16:50:34.653Z,1.00
2022-10-15T16:53:03.834Z,0.95
2022-10-15T16:55:32.591Z,1.10
2022-10-15T16:58:01.074Z,1.30
2022-10-15T17:00:29.380Z,1.05
2022-10-15T17:02:58.856Z,0.80
2022-10-15T17:05:28.562Z,0.90
2022-10-15T17:07:57.286Z,1.20
2022-10-15T17:10:26.022Z,1.27
2022-10-15T17:12:54.448Z,1.02
2022-10-15T17:15:22.664Z,1.20
2022-10-15T17:17:50.750Z,0.98
2022-10-15T17:20:19.368Z,0.95
2022-10-15T17:22:49.148Z,1.00
2022-10-15T17:25:23.949Z,1.05
2022-10-15T17:27:55.229Z,1.20
2022-10-15T17:30:27.695Z,1.25
2022-10-15T17:32:58.590Z,1.25
2022-10-15T17:35:32.786Z,1.30
2022-10-15T17:38:06.664Z,0.95
2022-10-15T17:40:43.745Z,1.00
2022-10-15T17:43:19.805Z,1.20
2022-10-15T17:46:02.883Z,0.85
2022-10-15T17:48:38.615Z,1.30
2022-10-15T17:51:15.993Z,0.80
2022-10-15T17:53:51.373Z,1.05
2022-10-15T17:56:28.378Z,1.30
2022-10-15T17:59:00.991Z,0.88
2022-10-15T18:01:57.385Z,1.20
2022-10-15T18:04:34.210Z,1.00
2022-10-15T18:07:08.643Z,1.02
2022-10-15T18:09:43.609Z,1.25
2022-10-15T18:12:17.859Z,1.30
2022-10-15T18:14:49.497Z,1.10
2022-10-15T18:17:28.031Z,1.65
2022-10-15T18:20:00.389Z,1.10
2022-10-15T18:22:31.869Z,1.15
2022-10-15T18:25:07.054Z,1.63
2022-10-15T18:27:41.815Z,1.15
2022-10-15T18:30:18.068Z,1.17
2022-10-15T18:32:50.427Z,1.00
2022-10-15T18:35:23.275Z,1.30
2022-10-15T18:37:58.453Z,1.10
2022-10-15T18:40:38.636Z,1.30
2022-10-15T18:43:09.723Z,1.10
2022-10-15T18:45:39.987Z,1.20
2022-10-15T18:48:09.905Z,1.08
2022-10-15T18:53:13.544Z,1.48
2022-10-15T18:55:46.909Z,0.90
2022-10-15T18:58:19.354Z,1.35
2022-10-15T19:00:50.294Z,1.75
2022-10-15T19:03:19.468Z,1.20
2022-10-15T19:05:52.630Z,2.33
2022-10-15T19:08:24.107Z,1.60
2022-10-15T19:10:57.856Z,1.40
2022-10-15T19:13:34.823Z,2.15
2022-10-15T19:16:06.573Z,1.50
2022-10-15T19:18:38.545Z,1.30
2022-10-15T19:21:09.690Z,1.30
2022-10-15T19:23:40.189Z,1.20
2022-10-15T19:26:15.677Z,1.40
2022-10-15T19:28:47.838Z,1.05
2022-10-15T19:31:23.974Z,1.10
2022-10-15T19:33:53.557Z,1.00
2022-10-15T19:36:26.162Z,0.95
2022-10-15T19:38:59.176Z,1.20
2022-10-15T19:41:33.027Z,1.55
2022-10-15T19:44:06.180Z,1.10
2022-10-15T19:46:40.576Z,1.00
2022-10-15T19:49:16.100Z,1.30
2022-10-15T19:51:51.288Z,0.93
2022-10-15T19:54:27.691Z,0.90
2022-10-15T19:57:00.281Z,1.00
2022-10-15T19:59:30.240Z,1.05
2022-10-15T20:01:59.214Z,1.23
2022-10-15T20:04:32.519Z,1.45
2022-10-15T20:07:05.036Z,1.48
2022-10-15T20:09:35.111Z,1.27
2022-10-15T20:12:07.959Z,1.08
2022-10-15T20:14:39.087Z,1.25
2022-10-15T20:17:10.866Z,1.10
2022-10-15T20:19:42.518Z,1.20
2022-10-15T20:22:14.279Z,1.10
2022-10-15T20:24:47.626Z,1.02
2022-10-15T20:27:22.682Z,1.17
2022-10-15T20:29:57.399Z,1.13
2022-10-15T20:32:35.545Z,1.00
2022-10-15T20:35:07.078Z,0.88
2022-10-15T20:37:38.114Z,1.25
2022-10-15T20:40:09.769Z,1.00
2022-10-15T20:42:43.350Z,1.10
2022-10-15T20:45:17.527Z,0.90
2022-10-15T20:47:53.309Z,1.05
2022-10-15T20:50:29.670Z,1.35
2022-10-15T20:53:01.884Z,1.15
2022-10-15T20:55:30.823Z,1.38
2022-10-15T20:58:00.360Z,1.10
2022-10-15T21:00:28.522Z,1.05
2022-10-15T21:02:56.491Z,0.80
2022-10-15T21:05:26.430Z,1.00
2022-10-15T21:07:58.241Z,1.52
2022-10-15T21:10:26.516Z,1.20
2022-10-15T21:12:55.147Z,1.33
2022-10-15T21:15:24.770Z,1.10
2022-10-15T21:17:52.752Z,1.10
2022-10-15T21:20:20.936Z,1.25
2022-10-15T21:22:49.116Z,1.35
2022-10-15T21:25:17.353Z,1.23
2022-10-15T21:27:54.439Z,1.00
2022-10-15T21:30:23.837Z,1.20
2022-10-15T21:32:51.868Z,1.40
2022-10-15T21:35:19.971Z,1.20
2022-10-15T21:37:48.089Z,1.17
2022-10-15T21:40:16.234Z,1.13
2022-10-15T21:42:44.178Z,1.25
2022-10-15T21:45:14.696Z,1.35
2022-10-15T21:47:44.457Z,0.98
2022-10-15T21:50:14.786Z,1.15
2022-10-15T21:52:43.496Z,1.08
2022-10-15T21:55:11.644Z,1.10
2022-10-15T21:57:41.069Z,1.50
2022-10-15T22:00:21.539Z,1.60
2022-10-15T22:02:58.652Z,1.23
2022-10-15T22:05:31.508Z,1.15
2022-10-15T22:08:03.158Z,1.00
2022-10-15T22:10:35.627Z,1.30
2022-10-15T22:13:06.955Z,1.48
2022-10-15T22:15:41.256Z,1.10
2022-10-15T22:18:12.794Z,1.33
2022-10-15T22:23:09.967Z,1.55
2022-10-15T22:25:38.198Z,1.50
2022-10-15T22:28:06.788Z,1.15
2022-10-15T22:30:35.904Z,1.48
2022-10-15T22:33:04.435Z,2.10
2022-10-15T22:35:35.415Z,1.60
2022-10-15T22:38:03.439Z,1.77
2022-10-15T22:40:31.674Z,1.58
2022-10-15T22:43:00.600Z,1.73
2022-10-15T22:45:28.661Z,1.45
2022-10-15T22:47:56.725Z,1.20
2022-10-15T22:50:24.913Z,1.42
2022-10-15T22:52:54.470Z,1.23
2022-10-15T22:55:22.616Z,1.80
2022-10-15T22:57:54.525Z,1.20
2022-10-15T23:00:22.634Z,1.05
2022-10-15T23:02:50.894Z,1.20
2022-10-15T23:05:19.191Z,1.30
2022-10-15T23:07:47.216Z,1.05
2022-10-15T23:10:16.770Z,1.10
2022-10-15T23:12:45.183Z,1.10
2022-10-15T23:15:13.281Z,0.90
2022-10-15T23:17:41.326Z,1.10
2022-10-15T23:20:10.514Z,1.15
2022-10-15T23:22:38.477Z,1.52
2022-10-15T23:25:07.157Z,1.30
2022-10-15T23:27:37.035Z,1.45
2022-10-15T23:30:14.592Z,1.20
2022-10-15T23:32:52.039Z,1.95
2022-10-15T23:35:20.117Z,1.17
2022-10-15T23:37:48.234Z,1.52
2022-10-15T23:40:16.543Z,1.15
2022-10-15T23:42:46.019Z,1.15
2022-10-15T23:45:24.609Z,1.10
2022-10-15T23:47:52.542Z,1.10
2022-10-15T23:50:20.950Z,1.45
2022-10-15T23:52:48.916Z,1.30
2022-10-15T23:55:18.101Z,1.05
2022-10-15T23:57:47.527Z,1.20
